首页
METAR-TAF:

METAR-TAF

机场 :

伊丽莎白市, 北卡罗来纳州, 美国

纬度: 36-15-47N, 经度: 076-10-58W, 海拔: 3米

当前天气观测

该预报发布于46分钟前的04:54 UTC
风速6节,风向西南
温度 0°C
湿度 80%
气压 1021 hPa
能見度: 16.1公里
天空无云

METAR: KECG 190454Z AUTO 22006KT 10SM CLR 00/M03 A3016 RMK AO2 SLP212 T00001033 401061017

时间: 00:40 (05:40 UTC)

预报

该预报发布于6小时和19分钟前的23:21 UTC
预报有效从19日的 00点(UTC)到 19日的 24点(UTC)
风速8节,风向西
能見度: 10公里
散云层高于8000英尺
从 19日的 0300点(UTC)
风速5节,风向西
能見度: 10公里
天空无云
从 19日的 1200点(UTC)
风速7节,风向西
能見度: 10公里
天空无云
从 19日的 1500点(UTC)
风速12节,风向西转西南
能見度: 10公里
散云层高于20000英尺

TAF: KECG 182321Z 1900/1924 28008KT P6SM SCT080 FM190300 27005KT P6SM SKC FM191200 26007KT P6SM SKC FM191500 25012KT P6SM SCT200

超过4000个机场的气象观测和天气预报(METAR&TAF报告)。

可查询的气象台以黄色和红色小点在地图上表示。

将鼠标移到小点上方,可查看气象台名称。

然后点击查看天气观测和预报。

如需切换地图:点击带黑十字的绿色按钮放大地图;点击带横线的绿色按钮缩小地图;或者点击绿色箭头查看邻近地区的地图。


METAR-TAF: